createdAt,value
2023-02-26T00:00:15.112Z,4.90
2023-02-26T00:02:42.949Z,3.95
2023-02-26T00:05:10.134Z,4.20
2023-02-26T00:07:37.151Z,4.40
2023-02-26T00:10:08.804Z,4.30
2023-02-26T00:12:36.196Z,4.80
2023-02-26T00:15:03.842Z,4.60
2023-02-26T00:17:30.327Z,5.47
2023-02-26T00:19:57.501Z,4.25
2023-02-26T00:22:24.419Z,3.25
2023-02-26T00:27:26.270Z,5.47
2023-02-26T00:30:05.591Z,5.90
2023-02-26T00:32:47.796Z,4.25
2023-02-26T00:35:16.106Z,7.03
2023-02-26T00:38:30.501Z,5.35
2023-02-26T00:41:32.307Z,4.82
2023-02-26T00:44:14.565Z,5.35
2023-02-26T00:47:00.691Z,4.68
2023-02-26T00:50:22.972Z,5.15
2023-02-26T00:53:34.600Z,5.47
2023-02-26T00:56:01.140Z,5.32
2023-02-26T00:58:29.982Z,4.53
2023-02-26T01:00:56.599Z,3.60
2023-02-26T01:03:23.451Z,6.37
2023-02-26T01:05:50.283Z,4.55
2023-02-26T01:08:52.299Z,4.97
2023-02-26T01:11:19.152Z,4.03
2023-02-26T01:13:46.009Z,4.43
2023-02-26T01:16:20.761Z,4.45
2023-02-26T01:20:23.316Z,5.15
2023-02-26T01:23:03.344Z,5.18
2023-02-26T01:25:47.680Z,5.95
2023-02-26T01:28:14.746Z,5.18
2023-02-26T01:30:41.745Z,6.15
2023-02-26T01:33:25.672Z,5.72
2023-02-26T01:36:03.232Z,5.03
2023-02-26T01:38:49.316Z,5.15
2023-02-26T01:41:23.358Z,4.85
2023-02-26T01:44:07.962Z,5.05
2023-02-26T01:47:11.323Z,3.85
2023-02-26T01:50:06.119Z,6.62
2023-02-26T01:52:47.721Z,5.37
2023-02-26T01:55:27.370Z,4.55
2023-02-26T01:57:56.245Z,5.30
2023-02-26T02:00:23.204Z,5.18
2023-02-26T02:02:50.564Z,4.12
2023-02-26T02:05:24.853Z,4.87
2023-02-26T02:10:27.387Z,5.15
2023-02-26T02:13:19.292Z,4.28
2023-02-26T02:16:20.782Z,5.25
2023-02-26T02:19:29.127Z,5.37
2023-02-26T02:22:39.299Z,5.28
2023-02-26T02:25:25.619Z,5.37
2023-02-26T02:27:52.056Z,5.25
2023-02-26T02:30:49.204Z,4.47
2023-02-26T02:33:23.629Z,5.32
2023-02-26T02:35:56.460Z,4.18
2023-02-26T02:38:42.287Z,5.40
2023-02-26T02:41:30.271Z,5.53
2023-02-26T02:44:02.127Z,6.80
2023-02-26T02:46:32.901Z,5.00
2023-02-26T02:49:52.492Z,6.12
2023-02-26T02:52:50.555Z,5.47
2023-02-26T02:55:25.175Z,5.90
2023-02-26T02:58:21.040Z,6.60
2023-02-26T03:00:53.311Z,7.05
2023-02-26T03:03:35.656Z,5.82
2023-02-26T03:06:03.299Z,5.07
2023-02-26T03:08:35.187Z,6.28
2023-02-26T03:16:35.091Z,5.78
2023-02-26T03:25:06.477Z,9.93
2023-02-26T03:27:57.595Z,8.38
2023-02-26T03:30:35.171Z,7.03
2023-02-26T03:33:06.118Z,6.00
2023-02-26T03:35:44.830Z,5.00
2023-02-26T03:38:19.905Z,6.45
2023-02-26T03:40:53.557Z,7.00
2023-02-26T03:43:44.718Z,8.30
2023-02-26T03:46:15.788Z,7.00
2023-02-26T03:49:12.814Z,6.45
2023-02-26T03:51:59.808Z,6.93
2023-02-26T03:54:34.200Z,7.55
2023-02-26T03:57:00.755Z,6.03
2023-02-26T03:59:27.447Z,6.25
2023-02-26T04:02:02.456Z,7.47
2023-02-26T04:04:37.966Z,6.55
2023-02-26T04:07:11.375Z,6.30
2023-02-26T04:09:40.299Z,8.15
2023-02-26T04:12:07.345Z,7.20
2023-02-26T04:14:33.919Z,6.40
2023-02-26T04:17:00.491Z,5.87
2023-02-26T04:19:28.045Z,6.47
2023-02-26T04:21:56.766Z,6.53
2023-02-26T04:24:23.559Z,6.20
2023-02-26T04:26:50.178Z,7.28
2023-02-26T04:29:16.784Z,5.93
2023-02-26T04:31:43.450Z,7.53
2023-02-26T04:34:10.230Z,8.50
2023-02-26T04:36:36.811Z,7.40
2023-02-26T04:39:03.566Z,8.80
2023-02-26T04:41:30.130Z,6.65
2023-02-26T04:43:56.735Z,6.90
2023-02-26T04:46:23.564Z,6.53
2023-02-26T04:48:50.726Z,6.40
2023-02-26T04:51:20.718Z,6.05
2023-02-26T04:53:47.439Z,6.78
2023-02-26T04:56:14.392Z,6.68
2023-02-26T04:58:40.956Z,6.62
2023-02-26T05:01:07.687Z,8.80
2023-02-26T05:03:34.508Z,7.45
2023-02-26T05:06:01.890Z,6.93
2023-02-26T05:08:28.430Z,7.28
2023-02-26T05:10:55.213Z,6.37
2023-02-26T05:13:22.048Z,6.87
2023-02-26T05:15:48.718Z,8.45
2023-02-26T05:18:15.296Z,9.25
2023-02-26T05:20:41.933Z,7.07
2023-02-26T05:23:17.437Z,6.12
2023-02-26T05:25:44.089Z,6.55
2023-02-26T05:28:10.634Z,7.45
2023-02-26T05:30:37.203Z,6.37
2023-02-26T05:33:28.241Z,7.12
2023-02-26T05:36:19.028Z,7.93
2023-02-26T05:38:45.617Z,6.78
2023-02-26T05:41:12.154Z,7.40
2023-02-26T05:43:39.573Z,6.95
2023-02-26T05:46:06.337Z,8.10
2023-02-26T05:48:33.200Z,6.03
2023-02-26T05:51:18.708Z,7.57
2023-02-26T05:53:46.004Z,7.47
2023-02-26T05:56:12.577Z,8.20
2023-02-26T05:58:39.202Z,7.65
2023-02-26T06:01:05.958Z,6.60
2023-02-26T06:04:07.518Z,7.95
2023-02-26T06:06:58.324Z,6.75
2023-02-26T06:09:49.798Z,6.78
2023-02-26T06:12:16.432Z,7.20
2023-02-26T06:14:43.025Z,7.30
2023-02-26T06:17:09.666Z,7.37
2023-02-26T06:19:36.276Z,8.50
2023-02-26T06:22:02.929Z,27.80
2023-02-26T06:24:29.560Z,10.40
2023-02-26T06:26:56.147Z,8.30
2023-02-26T06:29:23.704Z,9.25
2023-02-26T06:31:50.450Z,8.82
2023-02-26T06:34:17.311Z,8.35
2023-02-26T06:37:15.414Z,7.93
2023-02-26T06:40:10.860Z,9.43
2023-02-26T06:42:37.995Z,10.18
2023-02-26T06:45:05.518Z,11.98
2023-02-26T06:47:32.118Z,8.60
2023-02-26T06:49:58.691Z,9.60
2023-02-26T06:52:25.516Z,9.45
2023-02-26T06:54:52.077Z,10.13
2023-02-26T06:57:18.654Z,8.20
2023-02-26T06:59:45.212Z,24.12
2023-02-26T07:02:20.495Z,12.23
2023-02-26T07:04:47.369Z,8.70
2023-02-26T07:07:14.607Z,10.95
2023-02-26T07:09:41.808Z,9.98
2023-02-26T07:12:08.719Z,8.80
2023-02-26T07:14:35.549Z,9.52
2023-02-26T07:17:02.895Z,9.80
2023-02-26T07:19:30.035Z,12.05
2023-02-26T07:21:56.566Z,11.35
2023-02-26T07:24:23.505Z,8.88
2023-02-26T07:26:50.069Z,9.13
2023-02-26T07:29:16.709Z,8.98
2023-02-26T07:31:43.668Z,9.45
2023-02-26T07:34:10.331Z,10.93
2023-02-26T07:36:36.973Z,11.73
2023-02-26T07:39:03.880Z,9.07
2023-02-26T07:41:30.439Z,7.78
2023-02-26T07:43:57.166Z,8.57
2023-02-26T07:46:23.939Z,8.27
2023-02-26T07:48:50.903Z,7.70
2023-02-26T07:51:17.452Z,7.65
2023-02-26T07:53:43.986Z,17.20
2023-02-26T07:56:10.562Z,8.18
2023-02-26T07:58:37.419Z,7.90
2023-02-26T08:01:04.140Z,8.70
2023-02-26T08:03:32.204Z,9.70
2023-02-26T08:06:03.224Z,9.75
2023-02-26T08:08:29.808Z,9.80
2023-02-26T08:10:56.485Z,9.48
2023-02-26T08:13:23.189Z,7.50
2023-02-26T08:15:49.795Z,9.38
2023-02-26T08:18:16.484Z,7.22
2023-02-26T08:20:43.141Z,8.63
2023-02-26T08:23:09.943Z,9.18
2023-02-26T08:25:36.529Z,8.57
2023-02-26T08:28:03.672Z,8.57
2023-02-26T08:30:30.603Z,8.65
2023-02-26T08:32:57.358Z,8.27
2023-02-26T08:35:24.866Z,12.05
2023-02-26T08:37:52.783Z,8.38
2023-02-26T08:40:19.368Z,4.65
2023-02-26T08:42:46.386Z,9.45
2023-02-26T08:45:12.986Z,5.40
2023-02-26T08:47:55.691Z,4.62
2023-02-26T08:50:24.505Z,4.28
2023-02-26T08:52:51.148Z,4.00
2023-02-26T08:55:17.833Z,6.60
2023-02-26T08:57:44.394Z,4.35
2023-02-26T09:00:11.854Z,4.12
2023-02-26T09:02:39.320Z,5.12
2023-02-26T09:05:06.257Z,3.53
2023-02-26T09:07:32.801Z,4.37
2023-02-26T09:09:59.415Z,5.43
2023-02-26T09:12:26.076Z,4.72
2023-02-26T09:14:52.631Z,4.03
2023-02-26T09:17:19.237Z,5.55
2023-02-26T09:19:45.750Z,4.90
2023-02-26T09:22:12.285Z,4.78
2023-02-26T09:24:39.485Z,4.70
2023-02-26T09:27:06.123Z,4.00
2023-02-26T09:29:32.686Z,3.62
2023-02-26T09:31:59.401Z,4.30
2023-02-26T09:34:26.068Z,4.43
2023-02-26T09:36:52.609Z,4.10
2023-02-26T09:39:19.225Z,4.15
2023-02-26T09:41:53.201Z,6.72
2023-02-26T09:44:27.418Z,3.90
2023-02-26T09:47:05.879Z,4.93
2023-02-26T09:50:10.933Z,5.43
2023-02-26T09:52:47.030Z,5.07
2023-02-26T09:55:24.908Z,5.75
2023-02-26T09:57:54.440Z,5.25
2023-02-26T10:00:34.450Z,5.32
2023-02-26T10:03:27.324Z,6.93
2023-02-26T10:06:24.730Z,9.73
2023-02-26T10:09:08.183Z,6.70
2023-02-26T10:12:05.262Z,5.62
2023-02-26T10:15:14.265Z,4.78
2023-02-26T10:17:59.119Z,5.43
2023-02-26T10:20:53.049Z,6.87
2023-02-26T10:23:43.653Z,8.63
2023-02-26T10:26:25.043Z,6.18
2023-02-26T10:29:02.174Z,6.20
2023-02-26T10:31:57.923Z,6.20
2023-02-26T10:34:43.259Z,9.18
2023-02-26T10:37:20.271Z,14.10
2023-02-26T10:39:52.691Z,10.02
2023-02-26T10:42:38.690Z,6.15
2023-02-26T10:45:37.707Z,5.03
2023-02-26T10:48:16.426Z,5.00
2023-02-26T10:50:52.167Z,6.32
2023-02-26T10:53:21.420Z,5.32
2023-02-26T10:56:20.277Z,5.25
2023-02-26T10:58:46.829Z,4.30
2023-02-26T11:01:20.053Z,4.90
2023-02-26T11:03:50.087Z,6.55
2023-02-26T11:06:24.640Z,10.13
2023-02-26T11:08:55.645Z,5.53
2023-02-26T11:11:46.505Z,6.53
2023-02-26T11:14:14.605Z,5.72
2023-02-26T11:16:51.370Z,6.18
2023-02-26T11:19:24.252Z,4.78
2023-02-26T11:21:51.526Z,5.70
2023-02-26T11:24:37.848Z,5.55
2023-02-26T11:27:08.613Z,4.85
2023-02-26T11:29:40.975Z,5.68
2023-02-26T11:32:17.521Z,5.62
2023-02-26T11:34:48.896Z,5.07
2023-02-26T11:37:21.328Z,5.15
2023-02-26T11:39:51.094Z,6.57
2023-02-26T11:42:18.451Z,5.95
2023-02-26T11:44:47.672Z,6.05
2023-02-26T11:47:18.841Z,7.37
2023-02-26T11:49:51.648Z,7.22
2023-02-26T11:52:21.078Z,7.20
2023-02-26T11:54:50.309Z,5.70
2023-02-26T11:57:24.243Z,5.78
2023-02-26T11:59:54.161Z,7.15
2023-02-26T12:02:24.762Z,7.65
2023-02-26T12:04:54.175Z,7.22
2023-02-26T12:07:21.994Z,7.18
2023-02-26T12:09:51.598Z,6.93
2023-02-26T12:12:24.585Z,6.65
2023-02-26T12:18:15.850Z,6.75
2023-02-26T12:20:56.912Z,7.50
2023-02-26T12:23:44.750Z,8.07
2023-02-26T12:26:35.344Z,5.20
2023-02-26T12:29:20.458Z,5.62
2023-02-26T12:32:14.595Z,5.65
2023-02-26T12:34:41.102Z,6.40
2023-02-26T12:37:20.854Z,6.28
2023-02-26T12:39:56.404Z,6.55
2023-02-26T12:42:38.173Z,7.37
2023-02-26T12:45:22.147Z,7.12
2023-02-26T12:47:48.690Z,8.07
2023-02-26T12:50:27.254Z,6.80
2023-02-26T12:53:05.471Z,6.25
2023-02-26T12:56:09.856Z,6.35
2023-02-26T12:58:42.515Z,7.00
2023-02-26T13:01:15.203Z,8.30
2023-02-26T13:03:57.431Z,6.40
2023-02-26T13:06:33.350Z,8.18
2023-02-26T13:09:08.333Z,7.57
2023-02-26T13:11:40.862Z,9.57
2023-02-26T13:14:42.094Z,8.25
2023-02-26T13:17:08.624Z,6.78
2023-02-26T13:19:48.365Z,8.27
2023-02-26T13:22:45.985Z,7.87
2023-02-26T13:25:36.885Z,6.62
2023-02-26T13:28:30.969Z,6.72
2023-02-26T13:30:59.934Z,8.45
2023-02-26T13:33:34.654Z,6.93
2023-02-26T13:36:02.722Z,7.57
2023-02-26T13:38:49.409Z,7.70
2023-02-26T13:41:36.199Z,8.75
2023-02-26T13:44:28.537Z,15.98
2023-02-26T13:47:46.696Z,11.27
2023-02-26T13:50:40.710Z,11.70
2023-02-26T13:53:29.108Z,12.13
2023-02-26T13:56:07.494Z,12.45
2023-02-26T13:58:39.155Z,11.68
2023-02-26T14:01:29.841Z,10.32
2023-02-26T14:04:28.340Z,12.40
2023-02-26T14:06:58.991Z,14.07
2023-02-26T14:09:28.484Z,12.20
2023-02-26T14:11:54.995Z,12.82
2023-02-26T14:14:21.541Z,13.00
2023-02-26T14:17:15.724Z,11.43
2023-02-26T14:19:52.377Z,12.65
2023-02-26T14:22:23.798Z,11.45
2023-02-26T14:24:57.023Z,11.55
2023-02-26T14:27:36.745Z,9.77
2023-02-26T14:30:09.365Z,11.23
2023-02-26T14:32:47.962Z,11.20
2023-02-26T14:35:25.331Z,11.15
2023-02-26T14:38:15.137Z,9.82
2023-02-26T14:43:31.609Z,10.82
2023-02-26T14:45:58.291Z,9.98
2023-02-26T14:48:32.694Z,9.23
2023-02-26T14:55:20.901Z,7.57
2023-02-26T14:58:36.935Z,6.57
2023-02-26T15:01:21.610Z,7.37
2023-02-26T15:04:31.576Z,9.98
2023-02-26T15:07:23.012Z,8.23
2023-02-26T15:09:52.215Z,7.32
2023-02-26T15:12:34.901Z,5.78
2023-02-26T15:15:20.303Z,7.22
2023-02-26T15:18:40.108Z,7.43
2023-02-26T15:21:10.773Z,8.00
2023-02-26T15:23:39.811Z,8.32
2023-02-26T15:26:07.986Z,8.45
2023-02-26T15:28:40.403Z,9.07
2023-02-26T15:31:11.758Z,8.18
2023-02-26T15:36:16.003Z,8.50
2023-02-26T15:38:47.342Z,9.90
2023-02-26T15:41:15.725Z,9.07
2023-02-26T15:43:53.169Z,7.22
2023-02-26T15:46:26.400Z,8.30
2023-02-26T15:48:59.586Z,9.23
2023-02-26T15:53:55.476Z,8.13
2023-02-26T15:56:26.253Z,9.25
2023-02-26T15:59:03.193Z,6.85
2023-02-26T16:01:31.312Z,8.00
2023-02-26T16:04:01.390Z,7.22
2023-02-26T16:06:31.038Z,7.57
2023-02-26T16:08:58.202Z,8.18
2023-02-26T16:11:27.769Z,8.77
2023-02-26T16:13:54.671Z,8.95
2023-02-26T16:16:26.762Z,8.20
2023-02-26T16:18:56.006Z,8.38
2023-02-26T16:21:36.567Z,9.35
2023-02-26T16:24:07.174Z,9.38
2023-02-26T16:26:38.620Z,8.32
2023-02-26T16:29:15.764Z,8.88
2023-02-26T16:31:44.350Z,10.02
2023-02-26T16:34:35.544Z,9.05
2023-02-26T16:37:43.697Z,9.38
2023-02-26T16:40:28.502Z,7.05
2023-02-26T16:43:02.616Z,7.87
2023-02-26T16:45:49.813Z,6.50
2023-02-26T16:48:23.121Z,7.35
2023-02-26T16:51:16.012Z,6.62
2023-02-26T16:53:50.937Z,9.27
2023-02-26T16:56:20.549Z,14.98
2023-02-26T16:58:53.765Z,11.02
2023-02-26T17:01:22.824Z,7.07
2023-02-26T17:04:01.350Z,7.68
2023-02-26T17:06:31.266Z,7.45
2023-02-26T17:09:00.808Z,6.62
2023-02-26T17:11:33.355Z,6.55
2023-02-26T17:14:21.012Z,10.65
2023-02-26T17:16:48.807Z,8.07
2023-02-26T17:19:16.135Z,9.60
2023-02-26T17:21:49.185Z,9.25
2023-02-26T17:26:57.162Z,9.38
2023-02-26T17:29:37.272Z,8.70
2023-02-26T17:32:12.894Z,10.02
2023-02-26T17:34:39.510Z,8.68
2023-02-26T17:37:12.245Z,9.20
2023-02-26T17:39:39.573Z,10.27
2023-02-26T17:42:14.222Z,9.73
2023-02-26T17:44:41.249Z,8.20
2023-02-26T17:47:15.272Z,7.50
2023-02-26T17:49:41.989Z,7.32
2023-02-26T17:52:08.696Z,7.28
2023-02-26T17:54:35.288Z,6.70
2023-02-26T17:57:02.507Z,7.30
2023-02-26T17:59:29.072Z,6.87
2023-02-26T18:01:55.700Z,12.23
2023-02-26T18:04:22.756Z,15.05
2023-02-26T18:06:49.630Z,16.12
2023-02-26T18:09:16.689Z,16.17
2023-02-26T18:11:43.388Z,15.35
2023-02-26T18:14:11.096Z,16.02
2023-02-26T18:16:40.783Z,16.10
2023-02-26T18:19:08.249Z,14.70
2023-02-26T18:21:35.214Z,11.93
2023-02-26T18:24:01.927Z,10.88
2023-02-26T18:26:32.624Z,12.23
2023-02-26T18:28:59.196Z,9.82
2023-02-26T18:31:34.673Z,9.13
2023-02-26T18:34:03.373Z,9.68
2023-02-26T18:36:35.529Z,9.25
2023-02-26T18:39:02.541Z,10.83
2023-02-26T18:41:30.986Z,10.73
2023-02-26T18:43:57.561Z,9.90
2023-02-26T18:46:25.226Z,11.27
2023-02-26T18:48:51.902Z,12.00
2023-02-26T18:51:18.579Z,10.50
2023-02-26T18:53:45.421Z,12.10
2023-02-26T18:56:12.007Z,10.65
2023-02-26T18:58:40.419Z,9.07
2023-02-26T19:01:07.330Z,9.10
2023-02-26T19:03:33.955Z,8.57
2023-02-26T19:06:03.174Z,8.68
2023-02-26T19:08:30.431Z,8.73
2023-02-26T19:10:58.165Z,11.20
2023-02-26T19:13:25.210Z,9.57
2023-02-26T19:15:51.923Z,11.25
2023-02-26T19:18:19.038Z,11.68
2023-02-26T19:20:45.899Z,16.17
2023-02-26T19:23:12.612Z,14.25
2023-02-26T19:25:41.337Z,14.70
2023-02-26T19:28:09.079Z,14.55
2023-02-26T19:30:36.256Z,15.48
2023-02-26T19:33:02.957Z,15.02
2023-02-26T19:35:30.658Z,26.58
2023-02-26T19:37:59.708Z,21.52
2023-02-26T19:40:28.165Z,14.05
2023-02-26T19:42:54.744Z,16.87
2023-02-26T19:45:24.038Z,15.68
2023-02-26T19:47:50.636Z,14.20
2023-02-26T19:50:19.277Z,14.77
2023-02-26T19:52:45.935Z,11.93
2023-02-26T19:55:14.508Z,14.30
2023-02-26T19:57:41.184Z,12.57
2023-02-26T20:00:08.581Z,13.15
2023-02-26T20:02:35.199Z,13.40
2023-02-26T20:05:03.713Z,10.88
2023-02-26T20:07:30.331Z,13.20
2023-02-26T20:09:57.382Z,11.85
2023-02-26T20:12:23.906Z,10.63
2023-02-26T20:14:50.530Z,12.23
2023-02-26T20:17:17.082Z,12.57
2023-02-26T20:19:44.730Z,13.07
2023-02-26T20:22:11.737Z,14.95
2023-02-26T20:24:38.476Z,13.02
2023-02-26T20:27:07.089Z,13.88
2023-02-26T20:29:33.698Z,14.32
2023-02-26T20:32:00.463Z,13.38
2023-02-26T20:34:27.289Z,13.45
2023-02-26T20:36:55.744Z,14.40
2023-02-26T20:39:24.541Z,11.80
2023-02-26T20:41:51.150Z,13.25
2023-02-26T20:44:18.005Z,15.75
2023-02-26T20:46:44.667Z,14.87
2023-02-26T20:49:11.788Z,12.10
2023-02-26T20:51:40.878Z,13.62
2023-02-26T20:54:08.806Z,13.73
2023-02-26T20:56:35.500Z,12.85
2023-02-26T20:59:02.208Z,12.20
2023-02-26T21:01:35.426Z,12.77
2023-02-26T21:04:07.445Z,14.32
2023-02-26T21:06:35.037Z,12.50
2023-02-26T21:09:02.135Z,13.55
2023-02-26T21:11:34.550Z,14.77
2023-02-26T21:14:03.626Z,11.80
2023-02-26T21:16:30.590Z,14.80
2023-02-26T21:19:00.228Z,13.80
2023-02-26T21:21:26.931Z,12.45
2023-02-26T21:23:53.741Z,13.10
2023-02-26T21:26:21.273Z,12.90
2023-02-26T21:28:48.642Z,13.73
2023-02-26T21:31:20.336Z,13.57
2023-02-26T21:33:47.007Z,13.45
2023-02-26T21:36:14.481Z,14.77
2023-02-26T21:38:42.156Z,12.43
2023-02-26T21:41:08.900Z,15.02
2023-02-26T21:43:35.559Z,14.30
2023-02-26T21:46:02.243Z,17.58
2023-02-26T21:48:28.898Z,16.52
2023-02-26T21:50:56.630Z,15.75
2023-02-26T21:53:23.957Z,16.08
2023-02-26T21:55:50.579Z,19.50
2023-02-26T21:58:17.158Z,16.92
2023-02-26T22:00:44.327Z,11.80
2023-02-26T22:03:11.439Z,10.60
2023-02-26T22:05:38.204Z,8.38
2023-02-26T22:08:05.269Z,7.45
2023-02-26T22:10:31.942Z,6.80
2023-02-26T22:12:58.598Z,8.60
2023-02-26T22:15:25.221Z,5.85
2023-02-26T22:17:51.824Z,8.05
2023-02-26T22:20:18.605Z,6.35
2023-02-26T22:22:45.204Z,9.95
2023-02-26T22:33:39.021Z,8.45
2023-02-26T22:47:02.686Z,8.15
2023-02-26T22:49:29.335Z,7.45
2023-02-26T22:51:56.070Z,7.75
2023-02-26T22:54:22.639Z,7.78
2023-02-26T22:56:49.252Z,7.68
2023-02-26T22:59:16.360Z,5.95
2023-02-26T23:01:43.339Z,8.77
2023-02-26T23:04:10.763Z,7.75
2023-02-26T23:06:37.541Z,8.40
2023-02-26T23:09:05.884Z,7.37
2023-02-26T23:11:32.757Z,5.62
2023-02-26T23:13:59.358Z,7.45
2023-02-26T23:16:46.160Z,8.27
2023-02-26T23:19:57.586Z,7.60
2023-02-26T23:22:24.334Z,6.57
2023-02-26T23:24:50.948Z,5.93
2023-02-26T23:27:17.945Z,7.00
2023-02-26T23:29:45.798Z,7.43
2023-02-26T23:32:13.123Z,6.18
2023-02-26T23:35:07.941Z,5.43
2023-02-26T23:37:34.609Z,6.82
2023-02-26T23:40:01.354Z,7.65
2023-02-26T23:42:27.944Z,6.12
2023-02-26T23:45:48.150Z,6.62
2023-02-26T23:48:52.652Z,6.07
2023-02-26T23:51:19.235Z,6.18
2023-02-26T23:53:45.847Z,5.35
2023-02-26T23:56:12.814Z,6.03
2023-02-26T23:58:39.367Z,6.00
